createdAt,value
2022-09-22T00:02:17.004Z,48.66
2022-09-22T00:05:03.772Z,47.92
2022-09-22T00:07:49.713Z,48.26
2022-09-22T00:10:35.782Z,48.99
2022-09-22T00:13:21.735Z,48.23
2022-09-22T00:16:09.460Z,48.53
2022-09-22T00:18:55.661Z,48.47
2022-09-22T00:21:41.565Z,48.24
2022-09-22T00:24:28.201Z,48.70
2022-09-22T00:27:14.598Z,48.93
2022-09-22T00:30:00.801Z,48.22
2022-09-22T00:32:46.627Z,48.52
2022-09-22T00:35:32.641Z,49.02
2022-09-22T00:38:18.424Z,48.96
2022-09-22T00:41:05.069Z,48.38
2022-09-22T00:44:16.851Z,49.85
2022-09-22T00:47:09.549Z,48.44
2022-09-22T00:50:17.760Z,48.59
2022-09-22T00:53:12.470Z,48.37
2022-09-22T00:56:03.562Z,48.82
2022-09-22T00:58:54.632Z,48.34
2022-09-22T01:01:41.038Z,48.74
2022-09-22T01:04:27.999Z,48.54
2022-09-22T01:07:14.183Z,48.49
2022-09-22T01:10:00.120Z,48.07
2022-09-22T01:13:19.070Z,48.47
2022-09-22T01:16:20.249Z,48.61
2022-09-22T01:19:39.920Z,48.50
2022-09-22T01:22:49.832Z,48.53
2022-09-22T01:25:48.412Z,48.97
2022-09-22T01:29:12.039Z,48.45
2022-09-22T01:32:27.742Z,48.44
2022-09-22T01:35:49.746Z,48.67
2022-09-22T01:38:52.674Z,48.51
2022-09-22T01:41:51.980Z,48.73
2022-09-22T01:44:54.533Z,49.09
2022-09-22T01:47:41.165Z,48.75
2022-09-22T01:50:30.541Z,48.84
2022-09-22T01:53:19.780Z,48.62
2022-09-22T01:56:08.171Z,48.87
2022-09-22T01:58:57.013Z,49.01
2022-09-22T02:01:49.454Z,48.98
2022-09-22T02:04:42.324Z,49.09
2022-09-22T02:07:35.229Z,49.12
2022-09-22T02:10:25.520Z,48.83
2022-09-22T02:13:12.108Z,48.78
2022-09-22T02:16:00.995Z,48.72
2022-09-22T02:18:54.228Z,48.75
2022-09-22T02:21:42.548Z,49.17
2022-09-22T02:24:39.978Z,49.07
2022-09-22T02:27:27.764Z,48.80
2022-09-22T02:30:14.293Z,49.00
2022-09-22T02:33:01.013Z,49.08
2022-09-22T02:35:48.869Z,48.99
2022-09-22T02:38:44.714Z,48.87
2022-09-22T02:42:02.138Z,48.93
2022-09-22T02:44:55.824Z,48.89
2022-09-22T02:47:54.265Z,49.34
2022-09-22T02:50:40.273Z,49.23
2022-09-22T02:53:26.082Z,49.04
2022-09-22T02:56:12.065Z,49.01
2022-09-22T02:58:58.758Z,49.08
2022-09-22T03:01:45.177Z,49.26
2022-09-22T03:04:31.206Z,49.28
2022-09-22T03:07:18.402Z,48.99
2022-09-22T03:10:05.353Z,49.17
2022-09-22T03:13:14.925Z,49.40
2022-09-22T03:15:58.046Z,49.39
2022-09-22T03:18:43.818Z,49.61
2022-09-22T03:21:29.672Z,49.52
2022-09-22T03:24:15.814Z,49.43
2022-09-22T03:27:01.916Z,49.49
2022-09-22T03:29:47.712Z,49.27
2022-09-22T03:32:34.101Z,49.73
2022-09-22T03:35:19.958Z,49.58
2022-09-22T03:38:05.873Z,49.31
2022-09-22T03:40:52.893Z,49.59
2022-09-22T03:43:38.945Z,49.33
2022-09-22T03:46:26.965Z,49.26
2022-09-22T03:49:12.765Z,49.93
2022-09-22T03:51:58.545Z,49.44
2022-09-22T03:54:44.481Z,49.65
2022-09-22T03:57:30.478Z,49.66
2022-09-22T04:00:16.982Z,49.59
2022-09-22T04:03:02.790Z,49.80
2022-09-22T04:05:49.946Z,50.44
2022-09-22T04:08:36.293Z,50.35
2022-09-22T04:11:23.631Z,51.06
2022-09-22T04:14:10.112Z,51.41
2022-09-22T04:16:56.775Z,50.74
2022-09-22T04:19:43.093Z,50.71
2022-09-22T04:22:29.049Z,51.27
2022-09-22T04:25:15.278Z,50.83
2022-09-22T04:28:05.421Z,51.28
2022-09-22T04:30:51.611Z,50.51
2022-09-22T04:33:37.489Z,50.79
2022-09-22T04:36:23.621Z,50.53
2022-09-22T04:39:09.355Z,50.59
2022-09-22T04:41:55.596Z,50.52
2022-09-22T04:44:41.520Z,50.19
2022-09-22T04:47:28.981Z,50.44
2022-09-22T04:50:15.491Z,50.63
2022-09-22T04:53:01.811Z,50.32
2022-09-22T04:55:49.728Z,50.24
2022-09-22T04:58:35.561Z,50.24
2022-09-22T05:01:21.461Z,50.02
2022-09-22T05:04:07.254Z,50.41
2022-09-22T05:06:53.239Z,50.52
2022-09-22T05:09:39.029Z,50.07
2022-09-22T05:12:24.978Z,50.37
2022-09-22T05:15:12.660Z,50.52
2022-09-22T05:17:59.327Z,50.03
2022-09-22T05:20:45.891Z,50.43
2022-09-22T05:23:32.226Z,50.62
2022-09-22T05:26:18.065Z,50.62
2022-09-22T05:29:04.350Z,50.61
2022-09-22T05:31:50.335Z,50.58
2022-09-22T05:34:36.232Z,50.53
2022-09-22T05:37:22.130Z,50.61
2022-09-22T05:40:08.447Z,50.45
2022-09-22T05:42:54.594Z,50.62
2022-09-22T05:45:40.599Z,50.84
2022-09-22T05:48:30.887Z,50.58
2022-09-22T05:51:17.117Z,50.33
2022-09-22T05:54:03.099Z,50.52
2022-09-22T05:56:49.049Z,50.42
2022-09-22T05:59:34.854Z,50.36
2022-09-22T06:02:26.105Z,50.44
2022-09-22T06:05:16.700Z,50.21
2022-09-22T06:08:06.324Z,50.88
2022-09-22T06:10:52.846Z,50.54
2022-09-22T06:13:39.689Z,50.93
2022-09-22T06:16:26.068Z,50.85
2022-09-22T06:19:12.015Z,50.74
2022-09-22T06:21:57.837Z,50.67
2022-09-22T06:24:44.282Z,50.59
2022-09-22T06:27:30.069Z,50.61
2022-09-22T06:30:16.039Z,50.53
2022-09-22T06:33:03.119Z,50.66
2022-09-22T06:35:48.912Z,52.32
2022-09-22T06:38:34.729Z,52.78
2022-09-22T06:41:20.586Z,51.21
2022-09-22T06:44:08.125Z,50.51
2022-09-22T06:46:53.856Z,51.72
2022-09-22T06:49:39.682Z,50.67
2022-09-22T06:52:27.246Z,50.36
2022-09-22T06:55:19.433Z,50.09
2022-09-22T06:58:05.483Z,50.18
2022-09-22T07:00:51.350Z,50.09
2022-09-22T07:03:42.689Z,49.81
2022-09-22T07:06:28.615Z,49.88
2022-09-22T07:09:14.611Z,50.53
2022-09-22T07:12:00.536Z,49.72
2022-09-22T07:14:49.465Z,49.95
2022-09-22T07:17:36.973Z,49.54
2022-09-22T07:20:23.292Z,49.70
2022-09-22T07:23:14.159Z,49.71
2022-09-22T07:26:01.288Z,49.51
2022-09-22T07:28:51.558Z,49.44
2022-09-22T07:31:37.904Z,49.56
2022-09-22T07:34:24.017Z,49.92
2022-09-22T07:37:12.848Z,49.13
2022-09-22T07:40:00.718Z,49.57
2022-09-22T07:42:49.853Z,49.18
2022-09-22T07:45:35.579Z,49.33
2022-09-22T07:48:40.515Z,49.56
2022-09-22T07:51:27.500Z,49.95
2022-09-22T07:54:13.664Z,48.78
2022-09-22T07:56:59.614Z,48.78
2022-09-22T07:59:45.778Z,48.78
2022-09-22T08:02:31.735Z,49.71
2022-09-22T08:05:18.063Z,48.78
2022-09-22T08:08:06.015Z,48.65
2022-09-22T08:10:51.870Z,48.71
2022-09-22T08:13:39.117Z,48.72
2022-09-22T08:16:30.319Z,48.80
2022-09-22T08:19:16.745Z,48.84
2022-09-22T08:22:02.868Z,48.59
2022-09-22T08:24:48.864Z,48.93
2022-09-22T08:27:36.621Z,48.52
2022-09-22T08:30:22.420Z,48.88
2022-09-22T08:33:08.448Z,48.63
2022-09-22T08:35:56.600Z,48.09
2022-09-22T08:38:42.931Z,48.75
2022-09-22T08:41:31.738Z,48.30
2022-09-22T08:44:26.346Z,48.24
2022-09-22T08:47:38.842Z,48.17
2022-09-22T08:50:55.640Z,48.77
2022-09-22T08:53:46.177Z,48.56
2022-09-22T08:56:55.192Z,47.89
2022-09-22T08:59:56.362Z,47.91
2022-09-22T09:03:01.234Z,48.13
2022-09-22T09:06:12.240Z,48.39
2022-09-22T09:09:13.230Z,47.63
2022-09-22T09:12:08.788Z,47.77
2022-09-22T09:15:16.095Z,47.82
2022-09-22T09:18:07.054Z,46.97
2022-09-22T09:20:53.350Z,47.51
2022-09-22T09:26:52.424Z,47.66
2022-09-22T09:29:55.923Z,43.42
2022-09-22T09:32:50.889Z,47.14
2022-09-22T09:35:45.349Z,46.77
2022-09-22T09:38:35.033Z,46.66
2022-09-22T09:41:23.879Z,46.97
2022-09-22T09:44:20.204Z,46.98
2022-09-22T09:47:42.148Z,46.84
2022-09-22T09:50:32.350Z,46.63
2022-09-22T09:53:33.595Z,46.86
2022-09-22T09:56:30.109Z,46.52
2022-09-22T09:59:34.605Z,46.14
2022-09-22T10:02:49.519Z,46.84
2022-09-22T10:05:37.639Z,46.41
2022-09-22T10:08:24.497Z,46.31
2022-09-22T10:11:12.598Z,46.28
2022-09-22T10:13:58.940Z,46.06
2022-09-22T10:16:53.974Z,45.71
2022-09-22T10:19:39.977Z,45.75
2022-09-22T10:22:28.045Z,45.64
2022-09-22T10:25:23.101Z,45.31
2022-09-22T10:28:20.423Z,45.38
2022-09-22T10:31:06.726Z,45.04
2022-09-22T10:34:00.566Z,45.25
2022-09-22T10:36:46.961Z,45.25
2022-09-22T10:39:41.723Z,44.82
2022-09-22T10:42:40.349Z,45.13
2022-09-22T10:45:42.030Z,45.06
2022-09-22T10:48:39.620Z,44.91
2022-09-22T10:51:25.656Z,45.28
2022-09-22T10:54:32.339Z,45.11
2022-09-22T10:57:33.985Z,44.93
2022-09-22T11:00:21.641Z,44.65
2022-09-22T11:03:13.359Z,44.65
2022-09-22T11:06:25.151Z,44.66
2022-09-22T11:09:48.388Z,45.03
2022-09-22T11:12:46.770Z,42.48
2022-09-22T11:15:42.724Z,44.43
2022-09-22T11:18:28.786Z,44.52
2022-09-22T11:21:41.817Z,40.98
2022-09-22T11:24:48.620Z,44.07
2022-09-22T11:27:48.211Z,43.93
2022-09-22T11:30:42.985Z,43.69
2022-09-22T11:33:31.966Z,43.59
2022-09-22T11:36:35.292Z,43.69
2022-09-22T11:39:31.489Z,43.36
2022-09-22T11:42:27.116Z,43.06
2022-09-22T11:46:15.142Z,43.90
2022-09-22T11:49:07.177Z,43.61
2022-09-22T11:52:08.150Z,43.44
2022-09-22T11:55:00.326Z,43.11
2022-09-22T11:57:51.126Z,43.04
2022-09-22T12:00:45.431Z,42.78
2022-09-22T12:03:46.271Z,43.00
2022-09-22T12:06:41.339Z,42.91
2022-09-22T12:09:51.967Z,42.75
2022-09-22T12:12:37.980Z,42.98
2022-09-22T12:15:28.929Z,42.90
2022-09-22T12:18:30.008Z,43.45
2022-09-22T12:21:31.366Z,43.96
2022-09-22T12:24:17.689Z,43.69
2022-09-22T12:27:24.030Z,43.93
2022-09-22T12:30:21.714Z,43.64
2022-09-22T12:33:15.524Z,43.43
2022-09-22T12:36:03.080Z,43.46
2022-09-22T12:38:50.016Z,43.82
2022-09-22T12:41:48.316Z,44.01
2022-09-22T12:44:44.500Z,45.08
2022-09-22T12:47:41.322Z,43.78
2022-09-22T12:50:32.041Z,43.93
2022-09-22T12:53:21.603Z,44.18
2022-09-22T12:56:46.748Z,43.86
2022-09-22T12:59:38.661Z,43.67
2022-09-22T13:02:31.910Z,43.81
2022-09-22T13:05:24.243Z,43.94
2022-09-22T13:08:17.414Z,44.05
2022-09-22T13:11:05.817Z,44.17
2022-09-22T13:13:52.580Z,43.86
2022-09-22T13:16:39.077Z,43.27
2022-09-22T13:19:24.765Z,44.26
2022-09-22T13:22:20.684Z,43.60
2022-09-22T13:25:15.032Z,43.54
2022-09-22T13:28:04.361Z,43.73
2022-09-22T13:31:17.164Z,43.80
2022-09-22T13:34:26.227Z,43.61
2022-09-22T13:37:18.236Z,43.88
2022-09-22T13:40:09.587Z,43.98
2022-09-22T13:43:00.073Z,43.81
2022-09-22T13:45:46.234Z,44.98
2022-09-22T13:48:36.708Z,45.62
2022-09-22T13:51:25.046Z,45.50
2022-09-22T13:54:16.350Z,45.25
2022-09-22T13:57:05.139Z,45.74
2022-09-22T13:59:52.550Z,45.44
2022-09-22T14:02:44.084Z,45.47
2022-09-22T14:05:34.197Z,44.55
2022-09-22T14:08:29.740Z,44.50
2022-09-22T14:11:30.525Z,44.45
2022-09-22T14:14:23.520Z,44.58
2022-09-22T14:17:15.943Z,44.29
2022-09-22T14:20:04.783Z,44.13
2022-09-22T14:22:51.131Z,44.05
2022-09-22T14:25:37.306Z,43.78
2022-09-22T14:28:35.634Z,43.88
2022-09-22T14:31:25.010Z,43.63
2022-09-22T14:34:17.891Z,43.52
2022-09-22T14:37:16.972Z,43.95
2022-09-22T14:40:06.083Z,43.91
2022-09-22T14:43:41.150Z,44.17
2022-09-22T14:46:27.533Z,43.51
2022-09-22T14:49:36.952Z,42.95
2022-09-22T14:52:28.777Z,42.30
2022-09-22T14:55:36.695Z,41.90
2022-09-22T14:58:27.703Z,41.98
2022-09-22T15:01:51.008Z,41.64
2022-09-22T15:04:41.363Z,42.43
2022-09-22T15:07:33.316Z,41.74
2022-09-22T15:10:28.035Z,41.42
2022-09-22T15:13:39.386Z,40.97
2022-09-22T15:16:41.809Z,40.70
2022-09-22T15:19:28.003Z,40.26
2022-09-22T15:22:14.481Z,39.98
2022-09-22T15:25:00.405Z,39.47
2022-09-22T15:27:46.255Z,39.45
2022-09-22T15:30:32.796Z,39.44
2022-09-22T15:33:19.909Z,39.22
2022-09-22T15:36:13.667Z,39.13
2022-09-22T15:39:07.376Z,39.06
2022-09-22T15:41:53.676Z,39.22
2022-09-22T15:44:40.487Z,39.50
2022-09-22T15:47:27.201Z,39.30
2022-09-22T15:50:17.418Z,39.23
2022-09-22T15:53:03.333Z,39.42
2022-09-22T15:55:54.097Z,39.30
2022-09-22T15:58:42.320Z,39.45
2022-09-22T16:01:29.495Z,39.36
2022-09-22T16:04:15.512Z,39.67
2022-09-22T16:07:05.837Z,39.88
2022-09-22T16:09:52.133Z,39.70
2022-09-22T16:12:39.137Z,39.82
2022-09-22T16:15:25.392Z,39.83
2022-09-22T16:18:11.281Z,40.02
2022-09-22T16:21:07.747Z,39.79
2022-09-22T16:24:00.500Z,40.08
2022-09-22T16:26:49.253Z,40.19
2022-09-22T16:29:37.573Z,40.20
2022-09-22T16:32:23.318Z,40.61
2022-09-22T16:35:09.661Z,40.72
2022-09-22T16:37:55.836Z,40.63
2022-09-22T16:40:42.625Z,40.69
2022-09-22T16:43:28.475Z,40.69
2022-09-22T16:46:26.875Z,40.68
2022-09-22T16:49:16.285Z,40.80
2022-09-22T16:52:02.404Z,40.71
2022-09-22T16:54:48.253Z,40.86
2022-09-22T16:57:34.163Z,40.95
2022-09-22T17:00:20.173Z,41.11
2022-09-22T17:03:05.972Z,41.15
2022-09-22T17:06:01.893Z,41.21
2022-09-22T17:08:47.794Z,40.75
2022-09-22T17:11:36.681Z,41.33
2022-09-22T17:14:23.080Z,41.18
2022-09-22T17:17:09.974Z,41.27
2022-09-22T17:19:56.276Z,41.33
2022-09-22T17:22:42.341Z,41.58
2022-09-22T17:25:29.187Z,41.34
2022-09-22T17:28:16.568Z,41.67
2022-09-22T17:31:07.563Z,41.55
2022-09-22T17:33:55.032Z,41.40
2022-09-22T17:36:41.034Z,41.38
2022-09-22T17:39:28.584Z,41.68
2022-09-22T17:42:15.501Z,41.44
2022-09-22T17:45:02.872Z,41.93
2022-09-22T17:48:07.473Z,41.79
2022-09-22T17:51:12.248Z,41.49
2022-09-22T17:54:16.699Z,41.94
2022-09-22T17:57:02.612Z,41.85
2022-09-22T17:59:49.104Z,41.48
2022-09-22T18:02:41.812Z,41.97
2022-09-22T18:05:28.166Z,42.20
2022-09-22T18:08:16.977Z,41.86
2022-09-22T18:11:02.945Z,41.91
2022-09-22T18:13:50.725Z,42.08
2022-09-22T18:16:37.431Z,42.09
2022-09-22T18:19:27.654Z,42.31
2022-09-22T18:22:16.943Z,42.19
2022-09-22T18:25:02.779Z,42.40
2022-09-22T18:27:48.839Z,42.25
2022-09-22T18:30:34.867Z,42.44
2022-09-22T18:33:21.673Z,42.56
2022-09-22T18:36:07.795Z,42.42
2022-09-22T18:38:55.267Z,43.04
2022-09-22T18:41:41.365Z,42.80
2022-09-22T18:44:30.069Z,42.50
2022-09-22T18:47:18.573Z,42.87
2022-09-22T18:50:05.365Z,42.88
2022-09-22T18:52:54.407Z,43.01
2022-09-22T18:55:40.336Z,42.72
2022-09-22T18:58:26.166Z,42.73
2022-09-22T19:01:13.793Z,43.18
2022-09-22T19:04:05.831Z,43.09
2022-09-22T19:07:12.519Z,43.07
2022-09-22T19:09:58.476Z,43.25
2022-09-22T19:12:44.787Z,43.31
2022-09-22T19:15:30.854Z,43.37
2022-09-22T19:18:16.643Z,43.43
2022-09-22T19:21:03.909Z,43.99
2022-09-22T19:23:50.102Z,43.78
2022-09-22T19:26:42.212Z,44.26
2022-09-22T19:29:28.824Z,43.94
2022-09-22T19:32:14.862Z,44.04
2022-09-22T19:35:01.030Z,43.97
2022-09-22T19:37:47.912Z,44.10
2022-09-22T19:40:34.361Z,44.23
2022-09-22T19:43:20.521Z,44.24
2022-09-22T19:46:06.478Z,44.46
2022-09-22T19:48:52.344Z,44.47
2022-09-22T19:51:39.541Z,44.49
2022-09-22T19:54:25.701Z,44.28
2022-09-22T19:57:13.209Z,44.53
2022-09-22T19:59:59.132Z,44.57
2022-09-22T20:02:45.590Z,44.54
2022-09-22T20:05:37.023Z,44.66
2022-09-22T20:08:23.068Z,44.55
2022-09-22T20:11:25.714Z,44.60
2022-09-22T20:14:23.655Z,44.74
2022-09-22T20:17:09.706Z,44.76
2022-09-22T20:19:55.977Z,44.79
2022-09-22T20:22:42.188Z,45.08
2022-09-22T20:25:31.286Z,45.01
2022-09-22T20:28:17.779Z,45.12
2022-09-22T20:31:03.948Z,45.06
2022-09-22T20:33:50.626Z,45.29
2022-09-22T20:36:37.363Z,45.00
2022-09-22T20:39:23.718Z,45.14
2022-09-22T20:42:10.018Z,45.28
2022-09-22T20:44:56.353Z,45.51
2022-09-22T20:47:42.229Z,45.55
2022-09-22T20:50:28.393Z,45.40
2022-09-22T20:53:14.673Z,45.65
2022-09-22T20:56:05.543Z,45.65
2022-09-22T20:58:51.753Z,45.59
2022-09-22T21:01:37.728Z,45.54
2022-09-22T21:04:23.796Z,45.63
2022-09-22T21:07:10.206Z,45.65
2022-09-22T21:10:14.538Z,45.65
2022-09-22T21:13:03.446Z,45.61
2022-09-22T21:15:57.486Z,46.06
2022-09-22T21:18:43.617Z,46.12
2022-09-22T21:21:31.225Z,46.26
2022-09-22T21:24:17.383Z,46.00
2022-09-22T21:27:03.432Z,45.75
2022-09-22T21:29:49.523Z,46.23
2022-09-22T21:32:35.825Z,45.98
2022-09-22T21:35:21.824Z,46.23
2022-09-22T21:38:07.716Z,45.95
2022-09-22T21:40:58.469Z,46.18
2022-09-22T21:43:44.858Z,46.11
2022-09-22T21:46:31.278Z,46.37
2022-09-22T21:49:17.525Z,46.09
2022-09-22T21:52:03.569Z,46.53
2022-09-22T21:54:50.703Z,46.30
2022-09-22T21:57:36.620Z,46.47
2022-09-22T22:00:47.976Z,46.46
2022-09-22T22:03:31.694Z,46.67
2022-09-22T22:06:19.491Z,46.79
2022-09-22T22:09:19.488Z,46.74
2022-09-22T22:12:05.538Z,46.70
2022-09-22T22:14:51.557Z,46.57
2022-09-22T22:17:37.337Z,46.78
2022-09-22T22:20:23.506Z,47.06
2022-09-22T22:23:10.175Z,46.54
2022-09-22T22:26:00.972Z,46.76
2022-09-22T22:28:48.558Z,46.66
2022-09-22T22:31:35.418Z,47.08
2022-09-22T22:34:25.517Z,46.88
2022-09-22T22:37:11.501Z,47.03
2022-09-22T22:39:57.575Z,47.15
2022-09-22T22:42:43.533Z,47.28
2022-09-22T22:45:29.420Z,47.30
2022-09-22T22:48:16.354Z,47.43
2022-09-22T22:51:11.585Z,47.47
2022-09-22T22:53:57.840Z,47.64
2022-09-22T22:56:45.861Z,47.43
2022-09-22T22:59:32.468Z,47.09
2022-09-22T23:02:18.446Z,47.64
2022-09-22T23:05:05.019Z,47.80
2022-09-22T23:07:53.412Z,47.62
2022-09-22T23:10:39.365Z,47.65
2022-09-22T23:13:25.131Z,47.52
2022-09-22T23:16:13.857Z,47.97
2022-09-22T23:19:01.863Z,47.71
2022-09-22T23:21:47.967Z,47.78
2022-09-22T23:24:33.881Z,47.95
2022-09-22T23:27:19.887Z,47.56
2022-09-22T23:30:06.951Z,47.85
2022-09-22T23:32:53.084Z,47.78
2022-09-22T23:35:40.201Z,48.18
2022-09-22T23:38:29.352Z,48.17
2022-09-22T23:41:15.434Z,48.36
2022-09-22T23:44:03.281Z,48.17
2022-09-22T23:46:49.555Z,48.58
2022-09-22T23:49:35.433Z,48.75
2022-09-22T23:52:22.483Z,48.19
2022-09-22T23:55:09.001Z,48.40
2022-09-22T23:57:54.862Z,48.44
